TFFR/PTP METAR and TAF weather

Enter ICAO airport designator
Station Type Date Time Source
TFFR METAR 2022/01/29 00:30 UTC NOAA

TFFR 290030Z AUTO 08003KT CAVOK 24/21 Q1014 TEMPO 4000 SHRA SCT015TCU


Station Type Date Time Source
TFFR Decoded METAR 2022/01/29 00:30 UTC NOAA

Le Raizet, Guadeloupe, Guadeloupe (TFFR) 16-16N 061-31W 11M
Jan 28, 2022 - 07:30 PM EST / 2022.01.29 0030 UTC
Wind: from the E (080 degrees) at 3 MPH (3 KT):0
Visibility: greater than 7 mile(s):0
Weather: Towering cumulus clouds observed
Temperature: 75 F (24 C)
Dew Point: 69 F (21 C)
Relative Humidity: 83%
Pressure (altimeter): 29.94 in. Hg (1014 hPa)
ob: TFFR 290030Z AUTO 08003KT CAVOK 24/21 Q1014 TEMPO 4000 SHRA SCT015TCU
cycle: 0

Station Type Date Time Source
TFFR TAF 2022/01/28 00:20 UTC NOAA

TAF TFFR 282300Z 2900/2924 12010KT 9999 SCT020 BKN040
TEMPO 2900/2913 VRB02KT PROB30
TEMPO 2900/2906 4000 SHRA SCT015TCU PROB30
TEMPO 2911/2919 3000 SHRA SCT012 BKN020TCU

Example: see airport list